sensor_id;sensor_type;location;lat;lon;timestamp;P1;durP1;ratioP1;P2;durP2;ratioP2
16314;SDS011;8266;52.150;4.768;2023-02-19T00:02:10;9.77;;;2.97;;
16314;SDS011;8266;52.150;4.768;2023-02-19T00:04:37;7.68;;;2.85;;
16314;SDS011;8266;52.150;4.768;2023-02-19T00:07:04;9.35;;;2.97;;
16314;SDS011;8266;52.150;4.768;2023-02-19T00:09:31;10.57;;;3.45;;
16314;SDS011;8266;52.150;4.768;2023-02-19T00:11:58;7.63;;;2.53;;
16314;SDS011;8266;52.150;4.768;2023-02-19T00:14:27;8.70;;;2.97;;
16314;SDS011;8266;52.150;4.768;2023-02-19T00:16:54;5.05;;;2.25;;
16314;SDS011;8266;52.150;4.768;2023-02-19T00:19:21;8.50;;;2.35;;
16314;SDS011;8266;52.150;4.768;2023-02-19T00:21:49;11.32;;;2.72;;
16314;SDS011;8266;52.150;4.768;2023-02-19T00:24:17;8.15;;;2.72;;
16314;SDS011;8266;52.150;4.768;2023-02-19T00:26:45;7.65;;;2.20;;
16314;SDS011;8266;52.150;4.768;2023-02-19T00:29:14;9.82;;;3.08;;
16314;SDS011;8266;52.150;4.768;2023-02-19T00:31:44;6.55;;;2.58;;
16314;SDS011;8266;52.150;4.768;2023-02-19T00:34:11;6.25;;;2.10;;
16314;SDS011;8266;52.150;4.768;2023-02-19T00:36:40;8.45;;;2.90;;
16314;SDS011;8266;52.150;4.768;2023-02-19T00:39:07;6.80;;;2.80;;
16314;SDS011;8266;52.150;4.768;2023-02-19T00:41:37;11.90;;;3.00;;
16314;SDS011;8266;52.150;4.768;2023-02-19T00:44:04;6.75;;;2.17;;
16314;SDS011;8266;52.150;4.768;2023-02-19T00:46:34;8.48;;;2.28;;
16314;SDS011;8266;52.150;4.768;2023-02-19T00:49:04;10.25;;;2.88;;
16314;SDS011;8266;52.150;4.768;2023-02-19T00:51:33;8.40;;;2.47;;
16314;SDS011;8266;52.150;4.768;2023-02-19T00:54:02;10.60;;;3.20;;
16314;SDS011;8266;52.150;4.768;2023-02-19T00:56:30;9.13;;;3.22;;
16314;SDS011;8266;52.150;4.768;2023-02-19T00:58:57;9.65;;;2.90;;
16314;SDS011;8266;52.150;4.768;2023-02-19T01:01:24;8.55;;;2.55;;
16314;SDS011;8266;52.150;4.768;2023-02-19T01:03:51;8.57;;;2.95;;
16314;SDS011;8266;52.150;4.768;2023-02-19T01:06:20;9.93;;;2.75;;
16314;SDS011;8266;52.150;4.768;2023-02-19T01:08:47;7.65;;;2.38;;
16314;SDS011;8266;52.150;4.768;2023-02-19T01:11:15;6.28;;;2.33;;
16314;SDS011;8266;52.150;4.768;2023-02-19T01:13:44;11.45;;;2.85;;
16314;SDS011;8266;52.150;4.768;2023-02-19T01:16:12;10.57;;;2.63;;
16314;SDS011;8266;52.150;4.768;2023-02-19T01:18:40;10.50;;;2.78;;
16314;SDS011;8266;52.150;4.768;2023-02-19T01:21:10;9.75;;;3.13;;
16314;SDS011;8266;52.150;4.768;2023-02-19T01:23:40;6.43;;;3.13;;
16314;SDS011;8266;52.150;4.768;2023-02-19T01:26:07;8.35;;;2.50;;
16314;SDS011;8266;52.150;4.768;2023-02-19T01:28:37;6.60;;;2.53;;
16314;SDS011;8266;52.150;4.768;2023-02-19T01:31:05;6.82;;;2.38;;
16314;SDS011;8266;52.150;4.768;2023-02-19T01:33:33;11.30;;;3.28;;
16314;SDS011;8266;52.150;4.768;2023-02-19T01:36:01;9.77;;;2.13;;
16314;SDS011;8266;52.150;4.768;2023-02-19T01:38:29;9.43;;;2.50;;
16314;SDS011;8266;52.150;4.768;2023-02-19T01:40:58;8.07;;;2.22;;
16314;SDS011;8266;52.150;4.768;2023-02-19T01:43:26;12.18;;;2.60;;
16314;SDS011;8266;52.150;4.768;2023-02-19T01:45:54;3.15;;;1.90;;
16314;SDS011;8266;52.150;4.768;2023-02-19T01:48:22;7.22;;;2.45;;
16314;SDS011;8266;52.150;4.768;2023-02-19T01:50:52;10.48;;;2.28;;
16314;SDS011;8266;52.150;4.768;2023-02-19T01:53:23;7.30;;;2.47;;
16314;SDS011;8266;52.150;4.768;2023-02-19T01:55:55;10.45;;;2.85;;
16314;SDS011;8266;52.150;4.768;2023-02-19T01:58:26;5.88;;;2.17;;
16314;SDS011;8266;52.150;4.768;2023-02-19T02:00:56;8.70;;;2.88;;
16314;SDS011;8266;52.150;4.768;2023-02-19T02:03:24;8.60;;;2.67;;
16314;SDS011;8266;52.150;4.768;2023-02-19T02:05:55;7.47;;;2.70;;
16314;SDS011;8266;52.150;4.768;2023-02-19T02:08:27;6.22;;;2.17;;
16314;SDS011;8266;52.150;4.768;2023-02-19T02:11:14;8.40;;;2.72;;
16314;SDS011;8266;52.150;4.768;2023-02-19T02:13:41;5.00;;;2.33;;
16314;SDS011;8266;52.150;4.768;2023-02-19T02:16:12;7.03;;;2.40;;
16314;SDS011;8266;52.150;4.768;2023-02-19T02:18:57;10.98;;;3.25;;
16314;SDS011;8266;52.150;4.768;2023-02-19T02:21:33;12.02;;;3.10;;
16314;SDS011;8266;52.150;4.768;2023-02-19T02:27:41;11.10;;;3.65;;
16314;SDS011;8266;52.150;4.768;2023-02-19T02:30:21;13.07;;;3.42;;
16314;SDS011;8266;52.150;4.768;2023-02-19T02:33:06;10.77;;;3.38;;
16314;SDS011;8266;52.150;4.768;2023-02-19T02:35:47;10.38;;;3.35;;
16314;SDS011;8266;52.150;4.768;2023-02-19T02:38:16;10.95;;;2.80;;
16314;SDS011;8266;52.150;4.768;2023-02-19T02:40:46;10.60;;;3.75;;
16314;SDS011;8266;52.150;4.768;2023-02-19T02:43:14;12.70;;;3.15;;
16314;SDS011;8266;52.150;4.768;2023-02-19T02:45:42;10.93;;;3.10;;
16314;SDS011;8266;52.150;4.768;2023-02-19T02:48:15;8.60;;;2.67;;
16314;SDS011;8266;52.150;4.768;2023-02-19T02:50:49;13.32;;;3.25;;
16314;SDS011;8266;52.150;4.768;2023-02-19T02:53:20;10.88;;;3.03;;
16314;SDS011;8266;52.150;4.768;2023-02-19T02:56:09;10.88;;;2.72;;
16314;SDS011;8266;52.150;4.768;2023-02-19T02:58:38;8.55;;;2.97;;
16314;SDS011;8266;52.150;4.768;2023-02-19T03:01:07;9.98;;;3.05;;
16314;SDS011;8266;52.150;4.768;2023-02-19T03:03:56;9.88;;;2.95;;
16314;SDS011;8266;52.150;4.768;2023-02-19T03:06:28;7.68;;;2.72;;
16314;SDS011;8266;52.150;4.768;2023-02-19T03:09:00;9.18;;;3.00;;
16314;SDS011;8266;52.150;4.768;2023-02-19T03:11:31;8.00;;;2.83;;
16314;SDS011;8266;52.150;4.768;2023-02-19T03:14:19;10.27;;;2.85;;
16314;SDS011;8266;52.150;4.768;2023-02-19T03:17:09;10.55;;;3.15;;
16314;SDS011;8266;52.150;4.768;2023-02-19T03:19:58;10.25;;;3.00;;
16314;SDS011;8266;52.150;4.768;2023-02-19T03:22:28;8.82;;;2.40;;
16314;SDS011;8266;52.150;4.768;2023-02-19T03:24:58;8.52;;;2.70;;
16314;SDS011;8266;52.150;4.768;2023-02-19T03:27:46;8.52;;;3.08;;
16314;SDS011;8266;52.150;4.768;2023-02-19T03:30:17;9.77;;;2.78;;
16314;SDS011;8266;52.150;4.768;2023-02-19T03:32:49;8.70;;;3.22;;
16314;SDS011;8266;52.150;4.768;2023-02-19T03:35:20;8.05;;;2.65;;
16314;SDS011;8266;52.150;4.768;2023-02-19T03:37:49;6.82;;;2.40;;
16314;SDS011;8266;52.150;4.768;2023-02-19T03:40:23;10.07;;;3.47;;
16314;SDS011;8266;52.150;4.768;2023-02-19T03:42:56;8.73;;;3.08;;
16314;SDS011;8266;52.150;4.768;2023-02-19T03:45:32;7.65;;;2.38;;
16314;SDS011;8266;52.150;4.768;2023-02-19T03:48:14;11.85;;;3.65;;
16314;SDS011;8266;52.150;4.768;2023-02-19T03:50:47;9.45;;;2.45;;
16314;SDS011;8266;52.150;4.768;2023-02-19T03:53:22;8.18;;;2.60;;
16314;SDS011;8266;52.150;4.768;2023-02-19T03:55:58;10.23;;;2.78;;
16314;SDS011;8266;52.150;4.768;2023-02-19T03:58:33;8.85;;;3.05;;
16314;SDS011;8266;52.150;4.768;2023-02-19T04:01:07;11.25;;;2.72;;
16314;SDS011;8266;52.150;4.768;2023-02-19T04:03:38;8.90;;;3.13;;
16314;SDS011;8266;52.150;4.768;2023-02-19T04:06:09;9.88;;;2.33;;
16314;SDS011;8266;52.150;4.768;2023-02-19T04:08:40;8.50;;;2.95;;
16314;SDS011;8266;52.150;4.768;2023-02-19T04:11:11;9.38;;;3.28;;
16314;SDS011;8266;52.150;4.768;2023-02-19T04:13:41;7.88;;;3.40;;
16314;SDS011;8266;52.150;4.768;2023-02-19T04:16:12;11.93;;;3.22;;
16314;SDS011;8266;52.150;4.768;2023-02-19T04:18:44;11.85;;;3.13;;
16314;SDS011;8266;52.150;4.768;2023-02-19T04:21:15;8.45;;;2.83;;
16314;SDS011;8266;52.150;4.768;2023-02-19T04:23:44;10.32;;;2.58;;
16314;SDS011;8266;52.150;4.768;2023-02-19T04:26:12;8.80;;;2.50;;
16314;SDS011;8266;52.150;4.768;2023-02-19T04:28:40;11.80;;;3.38;;
16314;SDS011;8266;52.150;4.768;2023-02-19T04:31:08;7.90;;;2.47;;
16314;SDS011;8266;52.150;4.768;2023-02-19T04:33:35;11.43;;;3.10;;
16314;SDS011;8266;52.150;4.768;2023-02-19T04:36:05;10.02;;;2.47;;
16314;SDS011;8266;52.150;4.768;2023-02-19T04:38:35;14.98;;;3.47;;
16314;SDS011;8266;52.150;4.768;2023-02-19T04:41:02;9.82;;;2.92;;
16314;SDS011;8266;52.150;4.768;2023-02-19T04:43:29;12.18;;;2.80;;
16314;SDS011;8266;52.150;4.768;2023-02-19T04:45:58;13.82;;;3.45;;
16314;SDS011;8266;52.150;4.768;2023-02-19T04:48:26;9.25;;;2.65;;
16314;SDS011;8266;52.150;4.768;2023-02-19T04:50:54;7.32;;;2.17;;
16314;SDS011;8266;52.150;4.768;2023-02-19T04:53:22;10.02;;;2.22;;
16314;SDS011;8266;52.150;4.768;2023-02-19T04:55:49;10.30;;;2.28;;
16314;SDS011;8266;52.150;4.768;2023-02-19T04:58:17;8.32;;;2.20;;
16314;SDS011;8266;52.150;4.768;2023-02-19T05:00:46;8.70;;;2.38;;
16314;SDS011;8266;52.150;4.768;2023-02-19T05:03:17;7.35;;;2.28;;
16314;SDS011;8266;52.150;4.768;2023-02-19T05:05:44;5.60;;;2.60;;
16314;SDS011;8266;52.150;4.768;2023-02-19T05:08:11;9.98;;;2.17;;
16314;SDS011;8266;52.150;4.768;2023-02-19T05:10:40;8.05;;;2.53;;
16314;SDS011;8266;52.150;4.768;2023-02-19T05:13:07;8.02;;;2.08;;
16314;SDS011;8266;52.150;4.768;2023-02-19T05:15:34;9.02;;;2.58;;
16314;SDS011;8266;52.150;4.768;2023-02-19T05:18:01;8.60;;;2.58;;
16314;SDS011;8266;52.150;4.768;2023-02-19T05:20:28;6.85;;;2.90;;
16314;SDS011;8266;52.150;4.768;2023-02-19T05:22:55;8.35;;;2.63;;
16314;SDS011;8266;52.150;4.768;2023-02-19T05:25:22;8.52;;;2.33;;
16314;SDS011;8266;52.150;4.768;2023-02-19T05:27:51;7.65;;;2.53;;
16314;SDS011;8266;52.150;4.768;2023-02-19T05:30:39;8.13;;;2.40;;
16314;SDS011;8266;52.150;4.768;2023-02-19T05:33:06;7.10;;;2.33;;
16314;SDS011;8266;52.150;4.768;2023-02-19T05:35:33;9.80;;;2.72;;
16314;SDS011;8266;52.150;4.768;2023-02-19T05:38:04;7.45;;;2.60;;
16314;SDS011;8266;52.150;4.768;2023-02-19T05:40:32;8.70;;;2.30;;
16314;SDS011;8266;52.150;4.768;2023-02-19T05:43:01;7.53;;;2.67;;
16314;SDS011;8266;52.150;4.768;2023-02-19T05:45:28;8.00;;;2.33;;
16314;SDS011;8266;52.150;4.768;2023-02-19T05:47:55;8.75;;;2.47;;
16314;SDS011;8266;52.150;4.768;2023-02-19T05:50:22;8.85;;;3.13;;
16314;SDS011;8266;52.150;4.768;2023-02-19T05:52:49;7.20;;;2.45;;
16314;SDS011;8266;52.150;4.768;2023-02-19T05:55:16;7.90;;;2.50;;
16314;SDS011;8266;52.150;4.768;2023-02-19T05:57:44;8.98;;;2.88;;
16314;SDS011;8266;52.150;4.768;2023-02-19T06:00:15;8.05;;;2.78;;
16314;SDS011;8266;52.150;4.768;2023-02-19T06:02:43;7.80;;;2.83;;
16314;SDS011;8266;52.150;4.768;2023-02-19T06:05:11;6.50;;;2.60;;
16314;SDS011;8266;52.150;4.768;2023-02-19T06:07:38;7.32;;;3.10;;
16314;SDS011;8266;52.150;4.768;2023-02-19T06:10:07;8.55;;;3.13;;
16314;SDS011;8266;52.150;4.768;2023-02-19T06:12:34;10.02;;;3.05;;
16314;SDS011;8266;52.150;4.768;2023-02-19T06:15:01;7.97;;;3.00;;
16314;SDS011;8266;52.150;4.768;2023-02-19T06:17:31;6.63;;;2.30;;
16314;SDS011;8266;52.150;4.768;2023-02-19T06:19:58;7.35;;;3.53;;
16314;SDS011;8266;52.150;4.768;2023-02-19T06:22:25;6.68;;;2.53;;
16314;SDS011;8266;52.150;4.768;2023-02-19T06:24:53;6.80;;;2.58;;
16314;SDS011;8266;52.150;4.768;2023-02-19T06:27:20;4.97;;;2.47;;
16314;SDS011;8266;52.150;4.768;2023-02-19T06:29:47;10.43;;;3.03;;
16314;SDS011;8266;52.150;4.768;2023-02-19T06:32:14;8.43;;;2.85;;
16314;SDS011;8266;52.150;4.768;2023-02-19T06:34:42;15.30;;;3.25;;
16314;SDS011;8266;52.150;4.768;2023-02-19T06:37:09;8.68;;;2.92;;
16314;SDS011;8266;52.150;4.768;2023-02-19T06:39:36;7.32;;;2.92;;
16314;SDS011;8266;52.150;4.768;2023-02-19T06:42:03;8.00;;;2.67;;
16314;SDS011;8266;52.150;4.768;2023-02-19T06:44:30;12.10;;;2.90;;
16314;SDS011;8266;52.150;4.768;2023-02-19T06:46:57;9.32;;;2.70;;
16314;SDS011;8266;52.150;4.768;2023-02-19T06:49:24;9.63;;;2.67;;
16314;SDS011;8266;52.150;4.768;2023-02-19T06:51:53;7.63;;;2.70;;
16314;SDS011;8266;52.150;4.768;2023-02-19T06:54:20;10.60;;;3.22;;
16314;SDS011;8266;52.150;4.768;2023-02-19T06:56:47;8.27;;;3.10;;
16314;SDS011;8266;52.150;4.768;2023-02-19T06:59:15;10.60;;;2.88;;
16314;SDS011;8266;52.150;4.768;2023-02-19T07:01:42;11.07;;;3.10;;
16314;SDS011;8266;52.150;4.768;2023-02-19T07:04:10;7.80;;;2.88;;
16314;SDS011;8266;52.150;4.768;2023-02-19T07:06:39;7.20;;;3.20;;
16314;SDS011;8266;52.150;4.768;2023-02-19T07:09:07;7.45;;;2.90;;
16314;SDS011;8266;52.150;4.768;2023-02-19T07:11:35;8.63;;;3.20;;
16314;SDS011;8266;52.150;4.768;2023-02-19T07:14:05;8.40;;;3.30;;
16314;SDS011;8266;52.150;4.768;2023-02-19T07:16:34;8.10;;;2.83;;
16314;SDS011;8266;52.150;4.768;2023-02-19T07:19:01;7.47;;;2.83;;
16314;SDS011;8266;52.150;4.768;2023-02-19T07:21:29;7.85;;;2.95;;
16314;SDS011;8266;52.150;4.768;2023-02-19T07:23:56;8.77;;;2.80;;
16314;SDS011;8266;52.150;4.768;2023-02-19T07:26:25;6.05;;;2.65;;
16314;SDS011;8266;52.150;4.768;2023-02-19T07:28:52;9.70;;;3.20;;
16314;SDS011;8266;52.150;4.768;2023-02-19T07:31:22;5.80;;;2.30;;
16314;SDS011;8266;52.150;4.768;2023-02-19T07:33:50;12.40;;;3.25;;
16314;SDS011;8266;52.150;4.768;2023-02-19T07:36:18;8.02;;;3.10;;
16314;SDS011;8266;52.150;4.768;2023-02-19T07:38:45;7.35;;;2.88;;
16314;SDS011;8266;52.150;4.768;2023-02-19T07:41:13;9.63;;;2.90;;
16314;SDS011;8266;52.150;4.768;2023-02-19T07:43:41;8.73;;;2.75;;
16314;SDS011;8266;52.150;4.768;2023-02-19T07:46:09;5.30;;;2.58;;
16314;SDS011;8266;52.150;4.768;2023-02-19T07:48:37;8.27;;;3.13;;
16314;SDS011;8266;52.150;4.768;2023-02-19T07:51:06;10.52;;;2.85;;
16314;SDS011;8266;52.150;4.768;2023-02-19T07:53:36;10.10;;;3.20;;
16314;SDS011;8266;52.150;4.768;2023-02-19T07:56:04;6.57;;;2.92;;
16314;SDS011;8266;52.150;4.768;2023-02-19T07:58:32;11.23;;;3.22;;
16314;SDS011;8266;52.150;4.768;2023-02-19T08:01:06;6.95;;;2.60;;
16314;SDS011;8266;52.150;4.768;2023-02-19T08:03:34;8.15;;;3.10;;
16314;SDS011;8266;52.150;4.768;2023-02-19T08:06:01;5.75;;;2.90;;
16314;SDS011;8266;52.150;4.768;2023-02-19T08:08:28;10.15;;;3.22;;
16314;SDS011;8266;52.150;4.768;2023-02-19T08:10:58;9.32;;;3.03;;
16314;SDS011;8266;52.150;4.768;2023-02-19T08:13:43;10.35;;;3.00;;
16314;SDS011;8266;52.150;4.768;2023-02-19T08:16:12;9.95;;;2.85;;
16314;SDS011;8266;52.150;4.768;2023-02-19T08:18:41;10.70;;;3.20;;
16314;SDS011;8266;52.150;4.768;2023-02-19T08:21:09;8.38;;;2.92;;
16314;SDS011;8266;52.150;4.768;2023-02-19T08:23:37;8.35;;;2.97;;
16314;SDS011;8266;52.150;4.768;2023-02-19T08:26:04;8.43;;;3.03;;
16314;SDS011;8266;52.150;4.768;2023-02-19T08:28:33;11.00;;;3.85;;
16314;SDS011;8266;52.150;4.768;2023-02-19T08:31:01;12.52;;;4.05;;
16314;SDS011;8266;52.150;4.768;2023-02-19T08:33:32;8.80;;;3.80;;
16314;SDS011;8266;52.150;4.768;2023-02-19T08:36:00;9.23;;;3.20;;
16314;SDS011;8266;52.150;4.768;2023-02-19T08:38:29;11.70;;;3.42;;
16314;SDS011;8266;52.150;4.768;2023-02-19T08:40:58;11.55;;;3.42;;
16314;SDS011;8266;52.150;4.768;2023-02-19T08:43:26;6.68;;;2.55;;
16314;SDS011;8266;52.150;4.768;2023-02-19T08:45:53;10.43;;;3.10;;
16314;SDS011;8266;52.150;4.768;2023-02-19T08:48:20;9.93;;;2.97;;
16314;SDS011;8266;52.150;4.768;2023-02-19T08:50:56;8.52;;;2.92;;
16314;SDS011;8266;52.150;4.768;2023-02-19T08:53:25;8.60;;;2.83;;
16314;SDS011;8266;52.150;4.768;2023-02-19T08:55:52;13.52;;;3.47;;
16314;SDS011;8266;52.150;4.768;2023-02-19T08:58:20;6.75;;;2.78;;
16314;SDS011;8266;52.150;4.768;2023-02-19T09:00:48;8.50;;;2.58;;
16314;SDS011;8266;52.150;4.768;2023-02-19T09:03:15;5.60;;;2.75;;
16314;SDS011;8266;52.150;4.768;2023-02-19T09:05:42;8.75;;;2.97;;
16314;SDS011;8266;52.150;4.768;2023-02-19T09:08:12;7.10;;;3.00;;
16314;SDS011;8266;52.150;4.768;2023-02-19T09:10:39;10.45;;;3.45;;
16314;SDS011;8266;52.150;4.768;2023-02-19T09:13:07;14.50;;;3.67;;
16314;SDS011;8266;52.150;4.768;2023-02-19T09:15:34;7.40;;;3.28;;
16314;SDS011;8266;52.150;4.768;2023-02-19T09:18:03;13.50;;;4.22;;
16314;SDS011;8266;52.150;4.768;2023-02-19T09:20:30;9.02;;;2.70;;
16314;SDS011;8266;52.150;4.768;2023-02-19T09:22:57;9.02;;;3.10;;
16314;SDS011;8266;52.150;4.768;2023-02-19T09:25:26;11.73;;;2.63;;
16314;SDS011;8266;52.150;4.768;2023-02-19T09:27:53;8.68;;;3.10;;
16314;SDS011;8266;52.150;4.768;2023-02-19T09:30:21;9.40;;;3.00;;
16314;SDS011;8266;52.150;4.768;2023-02-19T09:32:48;8.73;;;2.80;;
16314;SDS011;8266;52.150;4.768;2023-02-19T09:35:15;11.60;;;3.20;;
16314;SDS011;8266;52.150;4.768;2023-02-19T09:37:42;7.32;;;3.13;;
16314;SDS011;8266;52.150;4.768;2023-02-19T09:40:10;8.55;;;3.03;;
16314;SDS011;8266;52.150;4.768;2023-02-19T09:42:39;8.05;;;2.78;;
16314;SDS011;8266;52.150;4.768;2023-02-19T09:45:09;10.23;;;2.90;;
16314;SDS011;8266;52.150;4.768;2023-02-19T09:47:44;12.20;;;3.00;;
16314;SDS011;8266;52.150;4.768;2023-02-19T09:50:13;10.52;;;3.13;;
16314;SDS011;8266;52.150;4.768;2023-02-19T09:52:46;9.23;;;2.60;;
16314;SDS011;8266;52.150;4.768;2023-02-19T09:55:19;10.45;;;2.70;;
16314;SDS011;8266;52.150;4.768;2023-02-19T09:57:55;11.50;;;3.13;;
16314;SDS011;8266;52.150;4.768;2023-02-19T10:00:26;12.00;;;2.90;;
16314;SDS011;8266;52.150;4.768;2023-02-19T10:02:58;12.23;;;2.65;;
16314;SDS011;8266;52.150;4.768;2023-02-19T10:05:30;8.63;;;2.20;;
16314;SDS011;8266;52.150;4.768;2023-02-19T10:07:59;13.50;;;2.85;;
16314;SDS011;8266;52.150;4.768;2023-02-19T10:10:30;5.95;;;1.80;;
16314;SDS011;8266;52.150;4.768;2023-02-19T10:13:08;8.50;;;1.95;;
16314;SDS011;8266;52.150;4.768;2023-02-19T10:15:43;7.53;;;2.10;;
16314;SDS011;8266;52.150;4.768;2023-02-19T10:18:15;6.13;;;1.90;;
16314;SDS011;8266;52.150;4.768;2023-02-19T10:20:44;4.63;;;1.70;;
16314;SDS011;8266;52.150;4.768;2023-02-19T10:23:13;9.52;;;2.17;;
16314;SDS011;8266;52.150;4.768;2023-02-19T10:25:43;8.35;;;2.25;;
16314;SDS011;8266;52.150;4.768;2023-02-19T10:28:15;10.18;;;2.30;;
16314;SDS011;8266;52.150;4.768;2023-02-19T10:30:47;4.72;;;1.65;;
16314;SDS011;8266;52.150;4.768;2023-02-19T10:33:17;9.82;;;2.00;;
16314;SDS011;8266;52.150;4.768;2023-02-19T10:35:52;3.97;;;1.50;;
16314;SDS011;8266;52.150;4.768;2023-02-19T10:38:22;6.45;;;2.20;;
16314;SDS011;8266;52.150;4.768;2023-02-19T10:40:56;7.00;;;1.65;;
16314;SDS011;8266;52.150;4.768;2023-02-19T10:43:27;4.40;;;1.85;;
16314;SDS011;8266;52.150;4.768;2023-02-19T10:45:58;5.57;;;1.70;;
16314;SDS011;8266;52.150;4.768;2023-02-19T10:48:29;6.32;;;1.98;;
16314;SDS011;8266;52.150;4.768;2023-02-19T10:51:00;4.13;;;1.42;;
16314;SDS011;8266;52.150;4.768;2023-02-19T10:53:40;4.82;;;1.63;;
16314;SDS011;8266;52.150;4.768;2023-02-19T10:56:09;5.57;;;1.60;;
16314;SDS011;8266;52.150;4.768;2023-02-19T10:58:41;3.33;;;1.63;;
16314;SDS011;8266;52.150;4.768;2023-02-19T11:01:15;6.63;;;1.50;;
16314;SDS011;8266;52.150;4.768;2023-02-19T11:03:45;5.43;;;1.27;;
16314;SDS011;8266;52.150;4.768;2023-02-19T11:06:13;5.43;;;1.30;;
16314;SDS011;8266;52.150;4.768;2023-02-19T11:08:46;4.82;;;1.40;;
16314;SDS011;8266;52.150;4.768;2023-02-19T11:11:27;3.17;;;1.38;;
16314;SDS011;8266;52.150;4.768;2023-02-19T11:14:00;4.55;;;1.20;;
16314;SDS011;8266;52.150;4.768;2023-02-19T11:16:43;2.60;;;1.00;;
16314;SDS011;8266;52.150;4.768;2023-02-19T11:19:22;4.10;;;0.93;;
16314;SDS011;8266;52.150;4.768;2023-02-19T11:21:54;4.72;;;1.38;;
16314;SDS011;8266;52.150;4.768;2023-02-19T11:24:27;5.25;;;2.13;;
16314;SDS011;8266;52.150;4.768;2023-02-19T11:26:58;3.60;;;1.23;;
16314;SDS011;8266;52.150;4.768;2023-02-19T11:29:27;4.18;;;1.20;;
16314;SDS011;8266;52.150;4.768;2023-02-19T11:32:03;2.85;;;1.08;;
16314;SDS011;8266;52.150;4.768;2023-02-19T11:34:49;1.85;;;1.00;;
16314;SDS011;8266;52.150;4.768;2023-02-19T11:37:17;3.58;;;1.20;;
16314;SDS011;8266;52.150;4.768;2023-02-19T11:39:46;1.88;;;1.20;;
16314;SDS011;8266;52.150;4.768;2023-02-19T11:42:18;3.67;;;1.30;;
16314;SDS011;8266;52.150;4.768;2023-02-19T11:45:02;2.83;;;1.10;;
16314;SDS011;8266;52.150;4.768;2023-02-19T11:47:48;2.55;;;1.05;;
16314;SDS011;8266;52.150;4.768;2023-02-19T11:50:45;1.05;;;0.88;;
16314;SDS011;8266;52.150;4.768;2023-02-19T11:53:20;2.45;;;0.80;;
16314;SDS011;8266;52.150;4.768;2023-02-19T11:56:02;1.80;;;1.00;;
16314;SDS011;8266;52.150;4.768;2023-02-19T12:01:47;2.97;;;2.55;;
16314;SDS011;8266;52.150;4.768;2023-02-19T12:07:44;3.50;;;3.15;;
16314;SDS011;8266;52.150;4.768;2023-02-19T12:10:44;4.60;;;3.40;;
16314;SDS011;8266;52.150;4.768;2023-02-19T12:13:25;3.30;;;3.00;;
16314;SDS011;8266;52.150;4.768;2023-02-19T12:16:09;3.50;;;3.20;;
16314;SDS011;8266;52.150;4.768;2023-02-19T12:18:52;3.70;;;3.33;;
16314;SDS011;8266;52.150;4.768;2023-02-19T12:21:40;2.65;;;2.45;;
16314;SDS011;8266;52.150;4.768;2023-02-19T12:24:36;2.60;;;2.40;;
16314;SDS011;8266;52.150;4.768;2023-02-19T12:27:29;2.65;;;2.40;;
16314;SDS011;8266;52.150;4.768;2023-02-19T12:36:05;2.70;;;2.13;;
16314;SDS011;8266;52.150;4.768;2023-02-19T12:38:42;2.60;;;2.40;;
16314;SDS011;8266;52.150;4.768;2023-02-19T12:41:17;2.55;;;2.35;;
16314;SDS011;8266;52.150;4.768;2023-02-19T12:43:53;3.03;;;2.72;;
16314;SDS011;8266;52.150;4.768;2023-02-19T12:46:27;2.28;;;2.08;;
16314;SDS011;8266;52.150;4.768;2023-02-19T12:48:59;2.38;;;2.08;;
16314;SDS011;8266;52.150;4.768;2023-02-19T12:51:36;2.33;;;2.13;;
16314;SDS011;8266;52.150;4.768;2023-02-19T12:54:11;2.28;;;2.08;;
16314;SDS011;8266;52.150;4.768;2023-02-19T12:56:45;3.22;;;1.70;;
16314;SDS011;8266;52.150;4.768;2023-02-19T12:59:20;2.85;;;2.35;;
16314;SDS011;8266;52.150;4.768;2023-02-19T13:01:51;2.50;;;2.20;;
16314;SDS011;8266;52.150;4.768;2023-02-19T13:04:28;1.60;;;1.50;;
16314;SDS011;8266;52.150;4.768;2023-02-19T13:07:02;1.67;;;1.48;;
16314;SDS011;8266;52.150;4.768;2023-02-19T13:09:32;2.03;;;1.65;;
16314;SDS011;8266;52.150;4.768;2023-02-19T13:12:04;2.28;;;1.70;;
16314;SDS011;8266;52.150;4.768;2023-02-19T13:14:37;1.70;;;1.60;;
16314;SDS011;8266;52.150;4.768;2023-02-19T13:17:12;1.95;;;1.58;;
16314;SDS011;8266;52.150;4.768;2023-02-19T13:19:45;1.75;;;1.65;;
16314;SDS011;8266;52.150;4.768;2023-02-19T13:22:18;1.60;;;1.50;;
16314;SDS011;8266;52.150;4.768;2023-02-19T13:25:09;2.63;;;1.90;;
16314;SDS011;8266;52.150;4.768;2023-02-19T13:27:43;2.05;;;1.60;;
16314;SDS011;8266;52.150;4.768;2023-02-19T13:30:32;2.40;;;1.50;;
16314;SDS011;8266;52.150;4.768;2023-02-19T13:33:22;2.83;;;1.52;;
16314;SDS011;8266;52.150;4.768;2023-02-19T13:36:07;1.27;;;1.17;;
16314;SDS011;8266;52.150;4.768;2023-02-19T13:38:38;2.15;;;1.50;;
16314;SDS011;8266;52.150;4.768;2023-02-19T13:41:24;1.63;;;1.52;;
16314;SDS011;8266;52.150;4.768;2023-02-19T13:43:54;1.55;;;1.40;;
16314;SDS011;8266;52.150;4.768;2023-02-19T13:46:24;1.95;;;1.75;;
16314;SDS011;8266;52.150;4.768;2023-02-19T14:04:47;2.53;;;2.35;;
16314;SDS011;8266;52.150;4.768;2023-02-19T14:25:36;3.90;;;3.60;;
16314;SDS011;8266;52.150;4.768;2023-02-19T14:28:34;4.28;;;3.90;;
16314;SDS011;8266;52.150;4.768;2023-02-19T14:31:14;4.57;;;4.18;;
16314;SDS011;8266;52.150;4.768;2023-02-19T14:33:46;4.63;;;4.07;;
16314;SDS011;8266;52.150;4.768;2023-02-19T14:36:17;4.60;;;4.20;;
16314;SDS011;8266;52.150;4.768;2023-02-19T14:38:52;4.90;;;4.07;;
16314;SDS011;8266;52.150;4.768;2023-02-19T14:41:22;5.18;;;4.38;;
16314;SDS011;8266;52.150;4.768;2023-02-19T14:43:52;4.47;;;4.07;;
16314;SDS011;8266;52.150;4.768;2023-02-19T14:46:23;4.30;;;3.90;;
16314;SDS011;8266;52.150;4.768;2023-02-19T14:48:56;2.38;;;2.03;;
16314;SDS011;8266;52.150;4.768;2023-02-19T14:51:29;0.98;;;0.80;;
16314;SDS011;8266;52.150;4.768;2023-02-19T14:54:00;1.02;;;0.68;;
16314;SDS011;8266;52.150;4.768;2023-02-19T15:02:12;0.68;;;0.50;;
16314;SDS011;8266;52.150;4.768;2023-02-19T15:04:41;1.35;;;0.65;;
16314;SDS011;8266;52.150;4.768;2023-02-19T15:07:20;0.40;;;0.40;;
16314;SDS011;8266;52.150;4.768;2023-02-19T15:09:52;1.10;;;0.40;;
16314;SDS011;8266;52.150;4.768;2023-02-19T15:12:21;0.85;;;0.40;;
16314;SDS011;8266;52.150;4.768;2023-02-19T15:14:52;0.75;;;0.40;;
16314;SDS011;8266;52.150;4.768;2023-02-19T15:17:24;0.93;;;0.90;;
16314;SDS011;8266;52.150;4.768;2023-02-19T15:19:53;0.70;;;0.63;;
16314;SDS011;8266;52.150;4.768;2023-02-19T15:22:23;1.00;;;0.68;;
16314;SDS011;8266;52.150;4.768;2023-02-19T15:24:52;0.43;;;0.30;;
16314;SDS011;8266;52.150;4.768;2023-02-19T15:27:20;0.32;;;0.25;;
16314;SDS011;8266;52.150;4.768;2023-02-19T15:29:49;0.40;;;0.30;;
16314;SDS011;8266;52.150;4.768;2023-02-19T15:32:19;0.70;;;0.40;;
16314;SDS011;8266;52.150;4.768;2023-02-19T15:34:54;0.98;;;0.35;;
16314;SDS011;8266;52.150;4.768;2023-02-19T15:37:22;0.68;;;0.68;;
16314;SDS011;8266;52.150;4.768;2023-02-19T15:39:50;1.75;;;1.27;;
16314;SDS011;8266;52.150;4.768;2023-02-19T15:42:19;1.83;;;1.30;;
16314;SDS011;8266;52.150;4.768;2023-02-19T15:44:50;0.80;;;0.60;;
16314;SDS011;8266;52.150;4.768;2023-02-19T15:47:23;0.47;;;0.40;;
16314;SDS011;8266;52.150;4.768;2023-02-19T15:49:58;0.47;;;0.45;;
16314;SDS011;8266;52.150;4.768;2023-02-19T15:52:32;0.32;;;0.30;;
16314;SDS011;8266;52.150;4.768;2023-02-19T15:55:07;0.20;;;0.20;;
16314;SDS011;8266;52.150;4.768;2023-02-19T15:57:49;0.40;;;0.40;;
16314;SDS011;8266;52.150;4.768;2023-02-19T16:00:24;0.30;;;0.28;;
16314;SDS011;8266;52.150;4.768;2023-02-19T16:02:56;1.20;;;0.30;;
16314;SDS011;8266;52.150;4.768;2023-02-19T16:05:24;1.02;;;0.30;;
16314;SDS011;8266;52.150;4.768;2023-02-19T16:08:06;0.85;;;0.30;;
16314;SDS011;8266;52.150;4.768;2023-02-19T16:10:50;0.38;;;0.30;;
16314;SDS011;8266;52.150;4.768;2023-02-19T16:13:21;1.45;;;1.00;;
16314;SDS011;8266;52.150;4.768;2023-02-19T16:15:55;2.13;;;0.88;;
16314;SDS011;8266;52.150;4.768;2023-02-19T16:18:24;4.28;;;2.08;;
16314;SDS011;8266;52.150;4.768;2023-02-19T16:20:51;4.95;;;3.20;;